Terminal Aerodrome Forecast
Issued by NWS

Home | Current Version | Previous Version | Text Only | Print | Product List | Glossary On
Versions: 1 2 3 4 5 6 7 8 9 10 11 12 13 14 15 16 17 18 19 20 21 22 23 24 25 26
000
FTUS46 KSGX 260200 AAA
TAFSAN
TAF AMD
KSAN 260234Z 2603/2706 VRB04KT P6SM SCT015
     FM260800 VRB03KT P6SM BKN017
     FM261800 29006KT P6SM SCT022
     FM262000 29010KT P6SM FEW022
     FM270100 VRB05KT P6SM FEW022=

USA.gov is the U.S. government's official web portal to all federal, state and local government web resources and services.